Anda, China
Current Conditions -  °F | °C
As of 8:00 PM on Sunday 21 Dec 2014 (Local Time) from ZYHB Reporting Station
Smoke Smoke  
Wind Chill: -17°   Ceiling: Unl
Heat Index:   Visibility: 2.5mi
Dew Point: -8°   Wind: 11mph
Humidity: 72%   Direction: 210°SSW
Pressure: 29.91"   Gusts: NA
Location:  46.4°N, 125.32°E
Report Text: ZYHB 211200Z 21005MPS 4000 FU NSC M18/M22 Q1013 NOSIG
Loading
Personal Weather Stations






























Interactive Weather Map New forecast layout! Learn more

10-Day Weather Forecast

Advertisements
Track Severe Weather on mobile